Terminal Aerodrome Forecast
Issued by NWS

Home | Current Version | Previous Version | Text Only | Print | Product List | Glossary On
Versions: 1 2 3 4 5 6 7 8 9 10 11 12 13 14 15 16 17 18 19 20
454
FTUS46 KLOX 272340
TAFBUR
TAF
KBUR 272340Z 2800/2824 20006KT P6SM SKC
     FM280500 VRB03KT P6SM SKC
     FM281000 VRB03KT P6SM BKN015
     FM281500 VRB03KT 6SM HZ BKN020
     FM281700 VRB03KT P6SM SKC
     FM282000 18008KT P6SM SKC=

USA.gov is the U.S. government's official web portal to all federal, state and local government web resources and services.